Time;durP1;ratioP1;P1;durP2;ratioP2;P2;SDS_P1;SDS_P2;PMS_P1;PMS_P2;Temp;Humidity;BMP_temperature;BMP_pressure;BME280_temperature;BME280_humidity;BME280_pressure;Samples;Min_cycle;Max_cycle;Signal;HPM_P1;HPM_P2
2024/03/04 00:01:37;;;;;;;3.60;1.27;;;;;;;8.56;100.00;97205.50;4976177;28;20061;-68
2024/03/04 00:04:02;;;;;;;3.92;1.40;;;;;;;8.27;100.00;97156.81;4958479;28;20266;-69
2024/03/04 00:06:28;;;;;;;4.63;1.50;;;;;;;8.53;100.00;97192.88;4968141;28;20485;-68
2024/03/04 00:08:53;;;;;;;4.90;1.58;;;;;;;8.45;100.00;97200.66;4979053;28;20041;-69
2024/03/04 00:11:22;;;;;;;4.30;1.65;;;;;;;8.46;100.00;97200.50;4957461;28;20041;-68
2024/03/04 00:13:47;;;;;;;3.33;1.13;;;;;;;8.46;100.00;97191.94;4964565;28;20058;-68
2024/03/04 00:16:13;;;;;;;4.25;1.63;;;;;;;8.31;100.00;97193.56;4972838;28;20045;-68
2024/03/04 00:18:38;;;;;;;4.82;1.65;;;;;;;8.06;100.00;97165.09;4976586;28;20040;-71
2024/03/04 00:21:05;;;;;;;4.00;1.35;;;;;;;8.30;100.00;97189.34;4977200;28;20128;-71
2024/03/04 00:23:31;;;;;;;3.70;1.40;;;;;;;8.21;100.00;97198.91;4978903;28;20177;-68
2024/03/04 00:25:56;;;;;;;3.78;1.48;;;;;;;8.01;100.00;97193.25;4963068;28;20236;-66
2024/03/04 00:28:21;;;;;;;5.63;1.83;;;;;;;7.95;100.00;97186.16;4969435;28;20609;-69
2024/03/04 00:30:47;;;;;;;6.50;1.60;;;;;;;7.99;100.00;97183.06;4968688;28;20152;-68
2024/03/04 00:33:14;;;;;;;4.13;1.55;;;;;;;8.08;100.00;97186.47;4975039;28;20644;-68
2024/03/04 00:35:41;;;;;;;4.43;1.30;;;;;;;8.12;100.00;97185.16;4977362;28;20041;-69
2024/03/04 00:38:06;;;;;;;5.05;1.58;;;;;;;8.12;100.00;97185.16;4989122;28;20042;-69
2024/03/04 00:40:34;;;;;;;5.00;1.50;;;;;;;8.16;100.00;97177.88;4960105;28;20062;-68
2024/03/04 00:43:04;;;;;;;6.72;1.80;;;;;;;7.90;100.00;97119.34;4982093;28;20169;-69
2024/03/04 00:45:30;;;;;;;3.22;1.10;;;;;;;8.19;100.00;97167.19;4977757;28;20861;-70
2024/03/04 00:47:56;;;;;;;4.18;1.30;;;;;;;8.22;100.00;97177.22;4963950;28;20042;-66
2024/03/04 00:50:22;;;;;;;4.18;1.60;;;;;;;8.12;100.00;97169.63;4990468;28;20051;-69
2024/03/04 00:52:48;;;;;;;4.72;1.52;;;;;;;8.19;100.00;97172.38;4958928;28;20045;-69
2024/03/04 00:55:14;;;;;;;4.68;1.83;;;;;;;8.16;100.00;97173.50;4955643;28;20054;-68
2024/03/04 00:57:40;;;;;;;3.72;1.30;;;;;;;8.05;100.00;97168.69;4966361;28;20496;-69
2024/03/04 01:00:08;;;;;;;4.78;1.48;;;;;;;8.12;100.00;97166.22;4954399;28;20042;-70
2024/03/04 01:02:34;;;;;;;3.85;1.45;;;;;;;8.11;100.00;97175.78;4996556;28;20030;-70
2024/03/04 01:05:02;;;;;;;3.60;1.15;;;;;;;8.17;100.00;97179.50;4955551;28;20076;-67
2024/03/04 01:07:28;;;;;;;3.60;1.30;;;;;;;8.19;100.00;97173.16;4979384;28;20237;-67
2024/03/04 01:09:54;;;;;;;3.97;1.33;;;;;;;8.17;100.00;97176.91;4962580;28;20056;-66
2024/03/04 01:12:19;;;;;;;3.67;1.20;;;;;;;7.87;100.00;97130.84;4979999;28;20042;-71
2024/03/04 01:14:44;;;;;;;4.82;1.30;;;;;;;8.22;100.00;97178.03;4990644;28;20570;-69
2024/03/04 01:17:16;;;;;;;5.38;1.50;;;;;;;8.15;100.00;97164.13;4981574;28;20046;-67
2024/03/04 01:19:47;;;;;;;5.80;1.27;;;;;;;8.38;100.00;97181.56;4963760;28;20048;-66
2024/03/04 01:22:16;;;;;;;5.50;1.45;;;;;;;8.46;100.00;97181.56;4974046;28;20102;-66
2024/03/04 01:24:45;;;;;;;4.93;1.40;;;;;;;8.45;100.00;97182.53;4971955;28;20108;-68
2024/03/04 01:27:11;;;;;;;3.25;1.27;;;;;;;7.95;100.00;97121.44;4994660;28;20046;-67
2024/03/04 01:29:37;;;;;;;5.63;1.42;;;;;;;8.36;100.00;97176.56;4956938;28;20141;-67
2024/03/04 01:32:03;;;;;;;3.03;1.10;;;;;;;8.44;100.00;97173.97;4964451;28;20091;-70
2024/03/04 01:34:29;;;;;;;5.13;1.40;;;;;;;8.50;100.00;97182.84;4971645;28;20038;-67
2024/03/04 01:36:58;;;;;;;3.75;1.40;;;;;;;8.41;100.00;97174.25;4972687;28;20079;-67
2024/03/04 01:39:23;;;;;;;3.95;1.50;;;;;;;8.49;100.00;97176.06;4977269;28;20763;-69
2024/03/04 01:41:48;;;;;;;4.32;1.20;;;;;;;8.25;100.00;97140.63;4983154;28;20053;-68
2024/03/04 01:44:16;;;;;;;4.93;1.20;;;;;;;8.53;100.00;97184.31;4961041;28;20041;-66
2024/03/04 01:46:42;;;;;;;5.53;1.30;;;;;;;8.50;100.00;97184.63;4976526;28;20046;-68
2024/03/04 01:49:08;;;;;;;5.18;1.33;;;;;;;8.30;100.00;97146.13;4976749;28;20037;-67
2024/03/04 01:51:34;;;;;;;4.18;1.20;;;;;;;8.56;100.00;97181.38;4965507;28;20087;-69
2024/03/04 01:54:00;;;;;;;3.10;1.20;;;;;;;8.49;100.00;97186.44;4994954;28;20092;-67
2024/03/04 01:56:26;;;;;;;4.57;1.30;;;;;;;8.51;100.00;97181.88;4974185;28;20363;-69
2024/03/04 01:58:52;;;;;;;3.38;1.05;;;;;;;8.63;100.00;97192.69;4974669;28;20055;-67
2024/03/04 02:01:20;;;;;;;3.50;1.38;;;;;;;8.24;100.00;97139.81;4962504;28;20052;-68
2024/03/04 02:03:46;;;;;;;4.15;1.20;;;;;;;8.44;100.00;97186.09;4959597;28;20096;-68
2024/03/04 02:06:14;;;;;;;7.15;1.83;;;;;;;8.21;100.00;97191.97;4977007;28;20482;-68
2024/03/04 02:08:40;;;;;;;3.47;1.25;;;;;;;8.20;100.00;97198.09;4955825;28;20619;-68
2024/03/04 02:11:06;;;;;;;5.78;1.58;;;;;;;8.06;100.00;97184.03;4976392;28;20060;-68
2024/03/04 02:13:37;;;;;;;5.15;1.50;;;;;;;8.12;100.00;97187.75;4958428;28;20041;-67
2024/03/04 02:16:03;;;;;;;5.55;1.38;;;;;;;8.03;100.00;97175.78;4975676;28;20702;-69
2024/03/04 02:18:28;;;;;;;4.57;1.60;;;;;;;8.07;100.00;97190.84;4969928;28;20041;-66
2024/03/04 02:20:57;;;;;;;3.83;1.38;;;;;;;7.84;100.00;97156.22;4979295;28;20210;-69
2024/03/04 02:23:23;;;;;;;5.90;1.67;;;;;;;7.98;100.00;97184.06;4975994;28;20051;-68
2024/03/04 02:25:56;;;;;;;4.40;1.50;;;;;;;8.02;100.00;97200.06;4957640;28;20038;-67
2024/03/04 02:28:27;;;;;;;4.45;1.45;;;;;;;8.02;100.00;97208.63;4971542;28;20037;-67
2024/03/04 02:30:52;;;;;;;3.50;1.52;;;;;;;7.98;100.00;97219.50;4958154;28;20048;-67
2024/03/04 02:33:21;;;;;;;3.80;1.60;;;;;;;7.70;100.00;97168.84;4953709;28;20038;-67
2024/03/04 02:35:48;;;;;;;3.85;1.35;;;;;;;8.04;100.00;97208.47;4977943;28;20053;-70
2024/03/04 02:38:17;;;;;;;4.47;1.45;;;;;;;7.86;100.00;97206.03;4987931;28;20042;-68
2024/03/04 02:40:48;;;;;;;6.50;1.57;;;;;;;7.97;100.00;97221.25;4954094;28;20058;-69
2024/03/04 02:43:14;;;;;;;4.43;1.30;;;;;;;7.99;100.00;97210.72;4991212;28;20136;-69
2024/03/04 02:45:39;;;;;;;4.38;1.50;;;;;;;8.10;100.00;97218.16;4958462;28;20041;-67
2024/03/04 02:48:05;;;;;;;4.10;1.50;;;;;;;8.12;100.00;97223.19;4976019;28;20123;-67
2024/03/04 02:50:33;;;;;;;4.80;1.30;;;;;;;8.20;100.00;97229.16;4958475;28;21245;-66
2024/03/04 02:53:01;;;;;;;3.75;1.20;;;;;;;8.22;100.00;97229.00;4954542;28;20879;-67
2024/03/04 02:55:31;;;;;;;3.75;1.40;;;;;;;8.16;100.00;97225.28;4975527;28;20053;-66
2024/03/04 02:57:56;;;;;;;4.13;1.20;;;;;;;8.14;100.00;97227.25;4957303;28;20046;-67
2024/03/04 03:00:22;;;;;;;5.03;2.03;;;;;;;8.08;100.00;97231.25;4979704;28;20029;-66
2024/03/04 03:02:47;;;;;;;3.63;1.35;;;;;;;8.20;100.00;97247.28;4971137;28;20547;-69
2024/03/04 03:05:13;;;;;;;4.68;1.35;;;;;;;8.23;100.00;97253.91;4975738;28;20041;-68
2024/03/04 03:07:38;;;;;;;3.38;1.27;;;;;;;8.09;100.00;97226.91;4975836;28;20406;-66
2024/03/04 03:10:05;;;;;;;4.90;1.77;;;;;;;7.99;100.00;97219.28;4978575;28;20425;-68
2024/03/04 03:12:30;;;;;;;4.22;1.40;;;;;;;8.33;100.00;97274.50;4957771;28;20041;-67
2024/03/04 03:14:56;;;;;;;3.90;1.40;;;;;;;8.08;100.00;97233.84;4992959;28;20045;-67
2024/03/04 03:17:24;;;;;;;4.43;1.48;;;;;;;8.36;100.00;97267.19;4961424;28;20149;-67
2024/03/04 03:19:52;;;;;;;5.38;1.85;;;;;;;8.26;100.00;97259.59;4975292;28;20042;-68
2024/03/04 03:22:21;;;;;;;4.18;1.50;;;;;;;8.28;100.00;97268.00;4977515;28;20079;-67
2024/03/04 03:24:48;;;;;;;4.50;2.00;;;;;;;8.20;100.00;97280.16;4979645;28;20042;-71
2024/03/04 03:27:14;;;;;;;5.18;1.55;;;;;;;8.23;100.00;97283.22;4990403;28;20755;-67
2024/03/04 03:29:41;;;;;;;4.80;1.70;;;;;;;8.25;100.00;97293.41;4961162;28;20040;-67
2024/03/04 03:32:07;;;;;;;4.80;1.83;;;;;;;8.28;100.00;97306.03;4976893;28;20049;-69
2024/03/04 03:34:35;;;;;;;6.75;1.50;;;;;;;8.26;100.00;97301.00;4982021;28;20048;-69
2024/03/04 03:37:03;;;;;;;4.18;1.60;;;;;;;8.22;100.00;97306.69;4990525;28;20095;-68
2024/03/04 03:39:29;;;;;;;7.07;1.80;;;;;;;8.01;100.00;97297.63;4982722;28;20069;-68
2024/03/04 03:41:54;;;;;;;4.30;1.65;;;;;;;7.95;100.00;97298.25;4964054;28;20141;-67
2024/03/04 03:44:19;;;;;;;4.10;1.65;;;;;;;7.98;100.00;97295.34;4967285;28;20068;-68
2024/03/04 03:46:45;;;;;;;5.07;1.67;;;;;;;8.01;100.00;97292.44;4980677;28;21021;-65
2024/03/04 03:49:12;;;;;;;3.78;1.48;;;;;;;7.80;100.00;97250.69;4980124;28;20496;-68
2024/03/04 03:51:37;;;;;;;7.47;1.70;;;;;;;8.08;100.00;97287.41;4984045;28;20408;-66
2024/03/04 03:54:03;;;;;;;7.60;2.03;;;;;;;7.95;100.00;97262.00;4959224;28;20042;-68
2024/03/04 03:56:28;;;;;;;4.18;1.55;;;;;;;7.91;100.00;97270.28;4983925;28;20058;-69
2024/03/04 03:58:54;;;;;;;6.13;1.35;;;;;;;7.90;100.00;97264.28;4981438;28;20075;-67
2024/03/04 04:01:19;;;;;;;4.22;1.45;;;;;;;8.14;100.00;97291.13;4974522;28;20056;-67
2024/03/04 04:03:47;;;;;;;5.35;1.20;;;;;;;8.17;100.00;97294.22;4963237;28;20489;-69
2024/03/04 04:06:17;;;;;;;5.05;1.60;;;;;;;8.12;100.00;97308.63;4960925;28;20046;-65
2024/03/04 04:08:43;;;;;;;4.90;1.60;;;;;;;8.11;100.00;97307.81;4986453;28;20058;-66
2024/03/04 04:11:08;;;;;;;4.93;1.80;;;;;;;8.07;100.00;97311.72;4983021;28;20042;-66
2024/03/04 04:13:38;;;;;;;4.10;1.50;;;;;;;7.98;100.00;97326.41;4975518;28;20030;-67
2024/03/04 04:16:04;;;;;;;7.30;1.58;;;;;;;8.02;100.00;97335.47;4961092;28;20038;-68
2024/03/04 04:18:29;;;;;;;4.85;1.67;;;;;;;7.73;100.00;97309.22;4979153;28;20454;-69
2024/03/04 04:20:54;;;;;;;5.15;1.60;;;;;;;8.08;100.00;97365.09;4998342;28;21455;-68
2024/03/04 04:23:20;;;;;;;4.75;1.80;;;;;;;8.11;100.00;97358.81;4959926;28;20042;-68
2024/03/04 04:25:45;;;;;;;6.00;1.67;;;;;;;8.11;100.00;97359.59;4993083;28;20042;-67
2024/03/04 04:28:11;;;;;;;6.38;2.00;;;;;;;7.97;100.00;97355.84;4974858;28;20042;-67
2024/03/04 04:30:38;;;;;;;4.70;1.80;;;;;;;7.99;100.00;97353.09;4973913;28;20132;-65
2024/03/04 04:33:06;;;;;;;4.90;1.80;;;;;;;8.11;100.00;97344.06;4974803;28;20615;-67
2024/03/04 04:35:34;;;;;;;5.05;2.75;;;;;;;8.17;100.00;97348.59;4965144;28;20789;-68
2024/03/04 04:37:59;;;;;;;7.18;2.50;;;;;;;8.01;100.00;97327.88;4978334;28;20049;-70
2024/03/04 04:40:25;;;;;;;8.55;2.38;;;;;;;8.14;100.00;97350.69;4953460;28;20085;-68
2024/03/04 04:42:52;;;;;;;5.68;2.33;;;;;;;7.95;100.00;97326.72;4944015;28;20548;-66
2024/03/04 04:45:22;;;;;;;7.05;2.00;;;;;;;8.07;100.00;97353.94;4970757;28;20490;-67
2024/03/04 04:47:50;;;;;;;5.13;2.10;;;;;;;8.17;100.00;97351.19;4956720;28;20038;-68
2024/03/04 04:50:17;;;;;;;5.18;2.03;;;;;;;7.98;100.00;97344.53;4939453;28;20041;-67
2024/03/04 04:52:45;;;;;;;5.38;2.00;;;;;;;7.77;100.00;97337.19;4967609;28;20583;-69
2024/03/04 04:55:11;;;;;;;6.03;2.30;;;;;;;7.91;100.00;97342.75;4957906;28;20133;-68
2024/03/04 04:57:38;;;;;;;4.65;1.90;;;;;;;7.96;100.00;97340.47;4948958;28;20818;-68
2024/03/04 05:00:04;;;;;;;6.30;1.95;;;;;;;7.96;100.00;97353.41;4955625;28;20496;-67
2024/03/04 05:02:32;;;;;;;5.63;2.00;;;;;;;7.91;100.00;97347.91;4941398;28;20529;-67
2024/03/04 05:05:00;;;;;;;4.95;1.70;;;;;;;7.93;100.00;97341.59;4957982;28;20046;-68
2024/03/04 05:07:27;;;;;;;5.47;1.70;;;;;;;7.90;100.00;97347.09;4955914;28;20497;-67
2024/03/04 05:09:53;;;;;;;5.38;1.90;;;;;;;7.82;100.00;97339.31;4958731;28;20073;-69
2024/03/04 05:12:21;;;;;;;5.13;1.70;;;;;;;7.87;100.00;97339.66;4940218;28;20044;-68
2024/03/04 05:14:46;;;;;;;6.28;1.70;;;;;;;7.84;100.00;97351.13;4954314;28;20042;-67
2024/03/04 05:17:11;;;;;;;4.95;1.60;;;;;;;7.76;100.00;97334.75;4937091;28;20039;-69
2024/03/04 05:19:42;;;;;;;4.47;1.60;;;;;;;7.83;100.00;97361.63;4952685;28;20093;-66
2024/03/04 05:22:09;;;;;;;4.57;1.58;;;;;;;7.87;100.00;97362.94;4976755;28;20112;-68
2024/03/04 05:24:35;;;;;;;4.00;1.27;;;;;;;7.82;100.00;97366.00;4931451;28;20492;-68
2024/03/04 05:27:00;;;;;;;6.93;2.35;;;;;;;7.91;100.00;97378.97;4958716;28;20031;-68
2024/03/04 05:29:27;;;;;;;6.90;1.65;;;;;;;7.95;100.00;97386.25;4941402;28;20077;-67
2024/03/04 05:31:55;;;;;;;4.28;1.52;;;;;;;7.95;100.00;97390.63;4959577;28;20034;-68
2024/03/04 05:34:20;;;;;;;5.40;1.42;;;;;;;7.95;100.00;97391.44;4943731;28;20049;-68
2024/03/04 05:36:46;;;;;;;6.22;1.60;;;;;;;8.01;100.00;97405.53;4956532;28;20117;-68
2024/03/04 05:39:12;;;;;;;5.25;1.77;;;;;;;8.00;100.00;97399.53;4961339;28;20132;-69
2024/03/04 05:41:39;;;;;;;4.75;2.00;;;;;;;8.07;100.00;97420.44;4946074;28;20046;-67
2024/03/04 05:44:08;;;;;;;4.82;2.00;;;;;;;8.09;100.00;97415.91;4975408;28;20048;-67
2024/03/04 05:46:35;;;;;;;6.03;2.45;;;;;;;8.13;100.00;97421.59;4955669;28;20041;-66
2024/03/04 05:49:01;;;;;;;7.03;3.22;;;;;;;8.14;100.00;97405.06;4953997;28;20042;-68
2024/03/04 05:51:29;;;;;;;6.32;2.80;;;;;;;8.14;100.00;97403.31;4935869;28;20026;-68
2024/03/04 05:53:57;;;;;;;5.32;2.20;;;;;;;8.15;100.00;97404.91;4955518;28;20039;-69
2024/03/04 05:56:25;;;;;;;6.88;2.33;;;;;;;8.20;100.00;97407.84;4976330;28;20132;-66
2024/03/04 05:58:50;;;;;;;5.30;2.05;;;;;;;8.29;100.00;97419.03;4936588;28;20046;-67
2024/03/04 06:01:16;;;;;;;6.03;2.15;;;;;;;8.32;100.00;97418.69;4943416;28;20500;-68
2024/03/04 06:03:41;;;;;;;5.85;2.67;;;;;;;8.14;100.00;97412.84;4941488;28;20606;-67
2024/03/04 06:06:12;;;;;;;6.60;2.53;;;;;;;8.15;100.00;97417.84;4950568;28;20910;-68
2024/03/04 06:08:37;;;;;;;5.30;2.20;;;;;;;8.15;100.00;97428.22;4957627;28;20064;-68
2024/03/04 06:11:03;;;;;;;5.32;2.42;;;;;;;8.17;100.00;97436.63;4952661;28;20039;-67
2024/03/04 06:13:29;;;;;;;6.20;2.35;;;;;;;8.20;100.00;97428.56;4961098;28;20050;-66
2024/03/04 06:15:56;;;;;;;6.53;2.20;;;;;;;8.16;100.00;97436.78;4968772;28;20046;-68
2024/03/04 06:18:24;;;;;;;4.88;2.33;;;;;;;8.26;100.00;97448.63;4940656;28;20100;-68
2024/03/04 06:20:49;;;;;;;5.88;2.60;;;;;;;8.18;100.00;97443.44;4960791;28;20101;-68
2024/03/04 06:23:15;;;;;;;5.50;2.58;;;;;;;8.25;100.00;97439.25;4939779;28;20122;-67
2024/03/04 06:25:40;;;;;;;5.85;2.63;;;;;;;8.30;100.00;97445.72;4954692;28;20899;-69
2024/03/04 06:28:06;;;;;;;6.65;3.00;;;;;;;8.26;100.00;97442.66;4969777;28;20108;-67
2024/03/04 06:30:31;;;;;;;5.75;2.67;;;;;;;8.31;100.00;97445.56;4955678;28;20073;-67
2024/03/04 06:32:59;;;;;;;5.95;2.72;;;;;;;8.26;100.00;97445.22;4950389;28;20037;-68
2024/03/04 06:35:24;;;;;;;7.63;2.58;;;;;;;8.17;100.00;97431.44;4958418;28;20052;-68
2024/03/04 06:37:50;;;;;;;6.68;2.70;;;;;;;8.16;100.00;97432.44;4948879;28;20042;-69
2024/03/04 06:40:17;;;;;;;5.70;2.55;;;;;;;8.22;100.00;97455.09;4969781;28;20510;-69
2024/03/04 06:42:45;;;;;;;7.72;3.20;;;;;;;8.16;100.00;97465.25;4928433;28;20147;-68
2024/03/04 06:45:11;;;;;;;5.65;3.40;;;;;;;8.17;100.00;97466.91;4941209;28;20038;-69
2024/03/04 06:47:36;;;;;;;7.97;3.08;;;;;;;8.19;100.00;97473.53;4956013;28;20038;-67
2024/03/04 06:50:04;;;;;;;5.60;2.83;;;;;;;8.18;100.00;97465.94;4957544;28;20050;-69
2024/03/04 06:52:30;;;;;;;5.72;2.72;;;;;;;8.20;100.00;97467.41;4948591;28;20053;-68
2024/03/04 06:54:57;;;;;;;7.43;3.25;;;;;;;8.33;100.00;97468.72;4943655;28;20531;-67
2024/03/04 06:57:25;;;;;;;5.60;2.90;;;;;;;8.38;100.00;97471.66;4957716;28;20046;-68
2024/03/04 06:59:53;;;;;;;6.80;3.17;;;;;;;8.40;100.00;97474.91;4964580;28;20056;-67
2024/03/04 07:02:19;;;;;;;8.88;3.40;;;;;;;8.36;100.00;97471.81;4954844;28;20100;-68
2024/03/04 07:04:44;;;;;;;5.95;2.80;;;;;;;8.32;100.00;97480.03;4962672;28;20121;-69
2024/03/04 07:07:12;;;;;;;6.00;3.13;;;;;;;8.24;100.00;97478.25;4956939;28;20493;-68
2024/03/04 07:09:42;;;;;;;6.15;3.35;;;;;;;8.20;100.00;97492.50;4961103;28;20061;-66
2024/03/04 07:12:08;;;;;;;7.97;3.03;;;;;;;8.11;100.00;97491.66;4960743;28;20122;-65
2024/03/04 07:14:33;;;;;;;8.60;2.80;;;;;;;8.16;100.00;97488.56;4938298;28;20057;-69
2024/03/04 07:16:59;;;;;;;6.68;2.70;;;;;;;8.30;100.00;97485.38;4957044;28;20377;-67
2024/03/04 07:19:24;;;;;;;6.43;2.67;;;;;;;8.38;100.00;97482.03;4972152;28;20054;-69
2024/03/04 07:21:50;;;;;;;6.00;2.83;;;;;;;8.28;100.00;97482.13;4975704;28;20746;-67
2024/03/04 07:24:15;;;;;;;7.00;2.88;;;;;;;8.27;100.00;97494.28;4960687;28;20050;-67
2024/03/04 07:26:41;;;;;;;7.75;2.65;;;;;;;7.72;100.00;97411.91;4960106;28;20768;-68
2024/03/04 07:29:07;;;;;;;7.45;2.88;;;;;;;8.21;100.00;97496.69;4965748;28;20038;-67
2024/03/04 07:31:32;;;;;;;9.48;3.30;;;;;;;8.24;100.00;97494.59;4975320;28;20074;-67
2024/03/04 07:33:58;;;;;;;7.70;3.20;;;;;;;8.27;100.00;97507.25;4964351;28;20069;-68
2024/03/04 07:36:24;;;;;;;5.50;3.00;;;;;;;8.11;100.00;97496.03;4958073;28;20512;-68
2024/03/04 07:38:50;;;;;;;6.07;3.13;;;;;;;8.11;100.00;97493.44;4961841;28;20409;-68
2024/03/04 07:41:15;;;;;;;7.25;2.75;;;;;;;8.24;100.00;97501.56;4991784;28;20049;-67
2024/03/04 07:43:42;;;;;;;6.32;2.80;;;;;;;8.30;100.00;97505.28;5001447;28;20072;-68
2024/03/04 07:46:07;;;;;;;7.78;2.85;;;;;;;8.23;100.00;97505.94;4954997;28;20042;-71
2024/03/04 07:48:32;;;;;;;8.30;3.17;;;;;;;8.22;100.00;97508.69;4975829;28;20123;-66
2024/03/04 07:51:00;;;;;;;6.45;3.00;;;;;;;8.24;100.00;97512.72;4975771;28;20042;-64
2024/03/04 07:53:25;;;;;;;5.53;2.70;;;;;;;8.36;100.00;97527.97;4961726;28;20116;-68
2024/03/04 07:55:53;;;;;;;7.35;2.90;;;;;;;8.28;100.00;97521.78;4975709;28;20128;-66
2024/03/04 07:58:19;;;;;;;7.95;2.88;;;;;;;8.23;100.00;97529.25;4972632;28;20042;-66
2024/03/04 08:00:46;;;;;;;5.78;2.92;;;;;;;8.26;100.00;97515.97;4969858;28;20049;-69
2024/03/04 08:03:12;;;;;;;5.50;2.63;;;;;;;8.09;100.00;97475.47;4963483;28;20042;-63
2024/03/04 08:05:40;;;;;;;5.60;2.03;;;;;;;8.20;100.00;97518.38;4988009;28;20053;-67
2024/03/04 08:08:08;;;;;;;5.07;2.30;;;;;;;8.27;100.00;97520.19;4958813;28;20113;-67
2024/03/04 08:10:34;;;;;;;5.30;2.15;;;;;;;8.33;100.00;97523.94;4995443;28;20243;-63
2024/03/04 08:12:59;;;;;;;7.68;2.95;;;;;;;8.37;100.00;97517.44;4990778;28;20060;-66
2024/03/04 08:15:29;;;;;;;6.03;2.78;;;;;;;8.33;100.00;97513.56;4974683;28;20148;-64
2024/03/04 08:17:55;;;;;;;6.82;2.83;;;;;;;8.35;100.00;97534.94;4972763;28;20042;-64
2024/03/04 08:20:23;;;;;;;4.35;1.98;;;;;;;8.32;100.00;97521.50;4972538;28;20094;-64
2024/03/04 08:22:49;;;;;;;4.63;2.03;;;;;;;8.27;100.00;97520.19;4980432;28;20745;-63
2024/03/04 08:25:20;;;;;;;5.07;1.92;;;;;;;8.33;100.00;97523.13;4977146;28;20044;-65
2024/03/04 08:27:46;;;;;;;5.35;1.80;;;;;;;8.25;100.00;97497.97;4975780;28;20034;-66
2024/03/04 08:30:13;;;;;;;5.95;1.90;;;;;;;8.37;100.00;97525.22;4974948;28;20179;-66
2024/03/04 08:32:46;;;;;;;6.03;2.25;;;;;;;8.42;100.00;97528.19;4980730;28;20033;-66
2024/03/04 08:35:12;;;;;;;6.50;1.90;;;;;;;8.46;100.00;97542.44;4979587;28;20137;-63
2024/03/04 08:37:40;;;;;;;3.85;1.73;;;;;;;8.50;100.00;97532.59;4977503;28;20042;-65
2024/03/04 08:40:06;;;;;;;4.18;1.60;;;;;;;8.65;100.00;97538.78;4966780;28;20065;-64
2024/03/04 08:42:32;;;;;;;7.53;2.25;;;;;;;8.65;100.00;97540.53;4979673;28;20572;-63
2024/03/04 08:44:57;;;;;;;4.82;2.00;;;;;;;8.56;100.00;97544.91;4977194;28;20042;-67
2024/03/04 08:47:25;;;;;;;5.53;1.90;;;;;;;8.56;100.00;97541.50;4993622;28;20112;-63
2024/03/04 08:49:51;;;;;;;5.97;1.83;;;;;;;8.63;100.00;97542.50;4975238;28;20053;-63
2024/03/04 08:52:16;;;;;;;5.28;2.20;;;;;;;8.65;100.00;97543.13;4958096;28;20160;-64
2024/03/04 08:54:41;;;;;;;4.43;1.75;;;;;;;8.66;100.00;97549.97;4965991;28;20789;-63
2024/03/04 08:57:07;;;;;;;3.88;1.52;;;;;;;8.71;100.00;97552.09;4989799;28;20037;-63
2024/03/04 08:59:40;;;;;;;5.75;2.28;;;;;;;8.73;100.00;97558.72;4977047;28;20326;-66
2024/03/04 09:02:10;;;;;;;4.75;1.70;;;;;;;8.79;100.00;97562.47;4949790;28;20038;-64
2024/03/04 09:04:38;;;;;;;6.25;2.03;;;;;;;8.80;100.00;97559.72;4984547;28;20048;-63
2024/03/04 09:07:03;;;;;;;7.03;1.88;;;;;;;8.54;100.00;97517.53;4974198;28;20062;-66
2024/03/04 09:09:30;;;;;;;4.95;2.00;;;;;;;8.73;100.00;97553.53;4979945;28;20116;-64
2024/03/04 09:11:56;;;;;;;5.78;2.00;;;;;;;8.72;100.00;97566.66;4970229;28;20068;-62
2024/03/04 09:14:22;;;;;;;4.38;1.90;;;;;;;8.80;100.00;97575.25;4957911;28;20053;-64
2024/03/04 09:16:52;;;;;;;6.90;1.98;;;;;;;8.60;100.00;97551.41;4970896;28;20041;-67
2024/03/04 09:19:17;;;;;;;5.78;3.03;;;;;;;8.95;100.00;97582.44;4967358;28;20576;-66
2024/03/04 09:21:48;;;;;;;8.60;3.25;;;;;;;9.08;100.00;97597.53;4957420;28;20517;-65
2024/03/04 09:24:14;;;;;;;6.80;2.70;;;;;;;9.27;100.00;97601.59;4973383;28;20057;-63
2024/03/04 09:26:48;;;;;;;4.35;2.03;;;;;;;8.82;100.00;97565.53;4959162;28;20932;-64
2024/03/04 09:29:14;;;;;;;8.00;2.97;;;;;;;9.11;100.00;97600.59;4962686;28;20108;-63
2024/03/04 09:31:39;;;;;;;6.22;2.60;;;;;;;9.03;100.00;97578.06;4991280;28;20579;-64
2024/03/04 09:34:05;;;;;;;7.80;2.45;;;;;;;9.37;100.00;97615.22;4992641;28;20871;-63
2024/03/04 09:36:31;;;;;;;4.85;2.10;;;;;;;9.42;100.00;97621.53;4978304;28;20041;-64
2024/03/04 09:38:57;;;;;;;4.72;1.92;;;;;;;9.42;100.00;97610.38;4974062;28;20091;-66
2024/03/04 09:41:23;;;;;;;6.00;2.00;;;;;;;9.56;100.00;97621.84;4985374;28;20295;-63
2024/03/04 09:43:49;;;;;;;6.65;1.75;;;;;;;9.61;100.00;97622.19;4962788;28;20042;-62
2024/03/04 09:46:17;;;;;;;4.63;1.90;;;;;;;9.63;100.00;97628.03;4976607;28;20510;-67
2024/03/04 09:48:45;;;;;;;4.72;1.90;;;;;;;9.69;100.00;97622.19;4979235;28;20117;-64
2024/03/04 09:51:11;;;;;;;5.55;1.77;;;;;;;9.70;100.00;97626.41;4980568;28;20306;-63
2024/03/04 09:53:38;;;;;;;4.07;1.60;;;;;;;9.80;100.00;97621.03;4975227;28;20125;-64
2024/03/04 09:56:04;;;;;;;3.35;1.50;;;;;;;9.77;100.00;97622.19;4961748;28;20537;-65
2024/03/04 09:58:33;;;;;;;3.78;1.60;;;;;;;9.83;100.00;97625.91;4958333;28;20073;-67
2024/03/04 10:01:00;;;;;;;5.40;2.00;;;;;;;9.65;100.00;97615.69;4963041;28;20041;-63
2024/03/04 10:03:26;;;;;;;7.07;2.00;;;;;;;9.68;100.00;97623.16;4959405;28;20040;-63
2024/03/04 10:05:51;;;;;;;7.47;2.70;;;;;;;9.72;100.00;97614.06;4976931;28;20457;-65
2024/03/04 10:08:21;;;;;;;4.60;1.80;;;;;;;9.55;100.00;97628.03;4991617;28;20113;-64
2024/03/04 10:10:50;;;;;;;;;;;;;;;9.57;100.00;97629.50;4990356;28;20057;-64
2024/03/04 10:13:16;;;;;;;5.18;2.20;;;;;;;9.40;100.00;97620.91;4956608;28;19925;-65
2024/03/04 10:15:47;;;;;;;7.13;2.35;;;;;;;9.51;100.00;97613.75;4973365;28;20034;-64
2024/03/04 10:18:13;;;;;;;7.68;2.30;;;;;;;9.23;100.00;97577.75;4990732;28;20037;-66
2024/03/04 10:20:39;;;;;;;7.20;2.25;;;;;;;9.58;100.00;97617.31;4978092;28;20484;-63
2024/03/04 10:23:07;;;;;;;5.72;1.70;;;;;;;9.52;100.00;97615.38;4957157;28;20053;-67
2024/03/04 10:25:33;;;;;;;7.80;2.05;;;;;;;9.54;100.00;97616.03;4970133;28;20102;-64
2024/03/04 10:27:59;;;;;;;4.97;1.88;;;;;;;9.70;100.00;97626.41;4975266;28;20124;-63
2024/03/04 10:30:27;;;;;;;4.95;1.70;;;;;;;9.76;100.00;97630.13;4971592;28;20052;-64
2024/03/04 10:32:56;;;;;;;5.55;1.70;;;;;;;9.85;100.00;97628.34;4986757;28;20224;-66
2024/03/04 10:35:22;;;;;;;6.10;2.20;;;;;;;9.86;100.00;97642.97;4976373;28;20080;-62
2024/03/04 10:37:51;;;;;;;6.05;1.65;;;;;;;9.63;100.00;97609.84;4957928;28;20417;-67
2024/03/04 10:40:21;;;;;;;4.78;1.85;;;;;;;9.60;100.00;97599.78;4971671;28;20923;-65
2024/03/04 10:42:46;;;;;;;4.40;1.88;;;;;;;9.62;100.00;97605.66;4994128;28;20476;-63
2024/03/04 10:45:13;;;;;;;7.32;2.10;;;;;;;9.97;100.00;97637.44;4966809;28;20061;-63
2024/03/04 10:47:42;;;;;;;5.60;2.90;;;;;;;9.98;100.00;97633.84;4971442;28;20045;-64
2024/03/04 10:50:12;;;;;;;5.25;2.28;;;;;;;10.11;100.00;97636.75;4956153;28;20128;-67
2024/03/04 10:52:40;;;;;;;6.55;2.10;;;;;;;10.10;100.00;97639.50;4961837;28;20124;-68
2024/03/04 10:55:06;;;;;;;5.07;1.67;;;;;;;10.05;100.00;97615.81;4959350;28;20144;-68
2024/03/04 10:57:35;;;;;;;4.70;1.40;;;;;;;10.07;100.00;97604.28;4962769;28;20557;-66
2024/03/04 11:00:17;;;;;;;4.85;1.38;;;;;;;10.35;100.00;97641.09;4979764;28;20056;-67
2024/03/04 11:02:51;;;;;;;3.80;1.10;;;;;;;10.36;100.00;97637.50;4959495;28;20206;-69
2024/03/04 11:05:21;;;;;;;4.05;0.90;;;;;;;10.47;100.00;97630.34;4974390;28;20042;-66
2024/03/04 11:07:50;;;;;;;4.28;1.23;;;;;;;10.53;100.00;97632.25;4952029;28;20069;-69
2024/03/04 11:10:30;;;;;;;5.68;1.50;;;;;;;10.62;100.00;97633.03;4942852;28;20039;-65
2024/03/04 11:13:14;;;;;;;4.57;1.50;;;;;;;10.31;100.00;97564.47;4952036;28;20077;-68
2024/03/04 11:15:57;;;;;;;4.72;1.25;;;;;;;10.79;100.00;97621.59;4964152;28;20050;-68
2024/03/04 11:19:00;;;;;;;4.60;1.40;;;;;;;10.86;100.00;97627.75;4956593;28;20038;-69
2024/03/04 11:21:26;;;;;;;6.07;1.45;;;;;;;10.80;100.00;97604.22;4980197;28;20045;-65
2024/03/04 11:23:51;;;;;;;4.72;1.60;;;;;;;10.87;100.00;97610.34;4957799;28;20849;-65
2024/03/04 11:26:17;;;;;;;3.95;1.70;;;;;;;10.90;100.00;97603.00;4977573;28;20537;-66
2024/03/04 11:28:43;;;;;;;4.25;1.67;;;;;;;10.96;100.00;97610.13;4958252;28;20031;-68
2024/03/04 11:31:10;;;;;;;6.78;1.85;;;;;;;11.04;100.00;97611.88;4959621;28;20574;-65
2024/03/04 11:33:45;;;;;;;7.68;2.10;;;;;;;10.93;100.00;97581.88;4967557;28;20242;-67